Sunday, December 17, 2017, 10:11 PM EST
Back to Local

KMUI, Muir Army Air Field / Indiantown

Location: Jonestown, PA, United States Lat: 40.433
Local Time: 10:11 PM EST ( 3:11 GMT) Lon: -76.567
Time Zone: US/Eastern Elev: 488 ft

Show me the last for .
Show Decoded

2017-12-17 20:56 METAR KMUI 180156Z AUTO 06003KT 10SM SCT060 02/M01 A3019 RMK AO2 SLP232
                 T00161011 FZRANO $ =
2017-12-17 19:56 METAR KMUI 180056Z AUTO 03003KT 10SM BKN100 OVC130 01/M01 A3020 RMK AO2 SLP235
                 T00111011 FZRANO $ =
2017-12-17 18:56 METAR KMUI 172356Z AUTO 03003KT 10SM BKN150 00/00 A3021 RMK AO2 SLP239 T00021001
                 10033 20002 50011 FZRANO $ =
2017-12-17 17:56 METAR KMUI 172256Z AUTO 00000KT 10SM BKN130 01/M01 A3021 RMK AO2 SLP238
                 T00111007 FZRANO $ =
2017-12-17 16:56 METAR KMUI 172156Z AUTO 00000KT 10SM BKN140 02/M01 A3020 RMK AO2 SLP235
                 T00171009 FZRANO $ =
2017-12-17 15:56 METAR KMUI 172056Z AUTO 00000KT 10SM BKN150 03/M02 A3018 RMK AO2 SLP228
                 T00271018 57012 FZRANO $ =
2017-12-17 14:56 METAR KMUI 171956Z AUTO 00000KT 10SM BKN120 03/M02 A3018 RMK AO2 SLP228
                 T00311018 FZRANO $ =
2017-12-17 13:56 METAR KMUI 171856Z AUTO 07003KT 10SM CLR 03/M02 A3020 RMK AO2 SLP235 T00291018
                 FZRANO $ =
2017-12-17 12:56 METAR KMUI 171756Z AUTO 00000KT 10SM FEW160 03/M02 A3021 RMK AO2 SLP238
                 T00271018 10027 21031 58017 FZRANO $ =
2017-12-17 11:56 METAR KMUI 171656Z AUTO 00000KT 10SM FEW220 02/M02 A3026 RMK AO2 SLP255
                 T00211021 FZRANO $ =
2017-12-17 10:56 METAR KMUI 171556Z AUTO 06004KT 10SM FEW210 02/M02 A3027 RMK AO2 SLP258
                 T00231017 FZRANO $ =
2017-12-17 09:56 METAR KMUI 171456Z AUTO 00000KT 10SM FEW200 01/M01 A3026 RMK AO2 SLP255
                 T00061009 50008 FZRANO $ =
2017-12-17 08:56 METAR KMUI 171356Z AUTO 08003KT 10SM CLR M01/M01 A3025 RMK AO2 SLP251 T10111012
                 FZRANO $ =
2017-12-17 07:56 METAR KMUI 171256Z AUTO 00000KT 10SM CLR M02/M02 A3025 RMK AO2 SLP252 T10251025
                 FZRANO $ =
2017-12-17 06:56 METAR KMUI 171156Z AUTO 00000KT 10SM CLR M03/M03 A3024 RMK AO2 SLP248 T10261027
                 11004 21032 53011 FZRANO $ =
2017-12-17 05:56 METAR KMUI 171056Z AUTO 04003KT 10SM OVC055 M01/M02 A3022 RMK AO2 SLP241
                 T10151016 FZRANO $ =
2017-12-17 04:56 METAR KMUI 170956Z AUTO 00000KT 10SM CLR M02/M02 A3021 RMK AO2 SLP238 T10181018
                 FZRANO $ =
2017-12-17 03:56 METAR KMUI 170856Z AUTO 00000KT 10SM BKN055 M02/M02 A3020 RMK AO2 SLP235
                 T10231023 50009 FZRANO $ =
2017-12-17 02:56 METAR KMUI 170756Z AUTO 00000KT 10SM OVC060 M02/M02 A3022 RMK AO2 SLP241
                 T10171018 FZRANO $ =
2017-12-17 01:56 METAR KMUI 170656Z AUTO 00000KT 10SM SCT060 M02/M02 A3020 RMK AO2 SLP235
                 T10191020 FZRANO $ =
2017-12-17 00:56 METAR KMUI 170556Z AUTO 00000KT 10SM CLR M01/M01 A3017 RMK AO2 SLP224 T10061007
                 10050 21009 52011 FZRANO $ =
2017-12-16 23:56 METAR KMUI 170456Z AUTO 00000KT 10SM BKN050 01/00 A3017 RMK AO2 SLP224 T00061001
                 400501113 FZRANO $ =
2017-12-16 22:56 METAR KMUI 170356Z AUTO 00000KT 10SM OVC050 02/M01 A3016 RMK AO2 SLP221
                 T00171007 FZRANO $ =

Support USWX by starting your Amazon purchase here.